Terminal Aerodrome Forecast
Issued by NWS

Home | Current Version | Previous Version | Text Only | Print | Product List | Glossary On
Versions: 1 2 3 4 5 6 7 8 9 10 11 12
666
FTUS44 KLIX 251740
TAFMCB
TAF
KMCB 251740Z 2518/2618 06007KT P6SM VCSH SCT035
     FM260000 00000KT P6SM FEW040 SCT110
      TEMPO 2611/2613 3SM BR FEW015 SCT035
     FM261430 08005KT P6SM SCT030=

USA.gov is the U.S. government's official web portal to all federal, state and local government web resources and services.